createdAt,value
2018-06-20T00:00:39.029Z,17.50
2018-06-20T00:03:07.846Z,17.50
2018-06-20T00:05:38.045Z,17.40
2018-06-20T00:08:06.961Z,17.30
2018-06-20T00:10:35.855Z,17.30
2018-06-20T00:13:04.797Z,17.20
2018-06-20T00:15:33.665Z,17.20
2018-06-20T00:18:02.497Z,17.10
2018-06-20T00:20:31.413Z,17.10
2018-06-20T00:23:01.217Z,17.00
2018-06-20T00:25:30.081Z,17.00
2018-06-20T00:27:59.004Z,16.90
2018-06-20T00:30:27.829Z,16.90
2018-06-20T00:32:57.677Z,16.80
2018-06-20T00:35:26.577Z,16.80
2018-06-20T00:37:55.493Z,16.70
2018-06-20T00:40:24.388Z,16.70
2018-06-20T00:42:54.317Z,16.60
2018-06-20T00:45:23.185Z,16.60
2018-06-20T00:47:52.057Z,16.60
2018-06-20T00:50:20.943Z,16.50
2018-06-20T00:52:49.752Z,16.50
2018-06-20T00:55:30.018Z,16.40
2018-06-20T00:57:58.905Z,16.40
2018-06-20T01:00:27.769Z,16.30
2018-06-20T01:02:56.644Z,16.30
2018-06-20T01:05:25.421Z,16.30
2018-06-20T01:07:54.225Z,16.20
2018-06-20T01:10:23.133Z,16.20
2018-06-20T01:12:52.045Z,16.20
2018-06-20T01:17:50.400Z,16.10
2018-06-20T01:20:19.301Z,16.00
2018-06-20T01:22:48.241Z,16.00
2018-06-20T01:25:17.104Z,15.90
2018-06-20T01:27:45.973Z,15.90
2018-06-20T01:30:14.869Z,15.80
2018-06-20T01:32:43.909Z,15.80
2018-06-20T01:35:12.729Z,15.80
2018-06-20T01:37:41.627Z,15.70
2018-06-20T01:40:10.565Z,15.70
2018-06-20T01:42:39.405Z,15.70
2018-06-20T01:45:08.278Z,15.60
2018-06-20T01:47:38.118Z,15.60
2018-06-20T01:50:07.042Z,15.50
2018-06-20T01:52:35.893Z,15.50
2018-06-20T01:55:05.357Z,15.50
2018-06-20T01:57:35.909Z,15.40
2018-06-20T02:00:05.064Z,15.40
2018-06-20T02:02:33.945Z,15.40
2018-06-20T02:05:02.857Z,15.30
2018-06-20T02:07:31.699Z,15.30
2018-06-20T02:10:00.588Z,15.30
2018-06-20T02:12:29.557Z,15.20
2018-06-20T02:14:58.517Z,15.20
2018-06-20T02:17:27.397Z,15.20
2018-06-20T02:22:25.877Z,15.10
2018-06-20T02:24:54.725Z,15.10
2018-06-20T02:27:23.574Z,15.10
2018-06-20T02:29:52.421Z,15.00
2018-06-20T02:32:21.337Z,15.00
2018-06-20T02:34:50.189Z,15.00
2018-06-20T02:37:19.158Z,15.00
2018-06-20T02:39:48.042Z,15.00
2018-06-20T02:42:16.842Z,14.90
2018-06-20T02:44:45.706Z,14.90
2018-06-20T02:47:14.605Z,14.90
2018-06-20T02:49:43.474Z,14.90
2018-06-20T02:52:12.361Z,14.90
2018-06-20T02:54:41.205Z,14.90
2018-06-20T02:57:10.105Z,14.90
2018-06-20T02:59:39.017Z,14.90
2018-06-20T03:02:07.901Z,14.90
2018-06-20T03:04:36.794Z,14.90
2018-06-20T03:07:05.671Z,14.80
2018-06-20T03:09:34.581Z,14.90
2018-06-20T03:12:03.469Z,14.90
2018-06-20T03:14:32.377Z,14.90
2018-06-20T03:17:01.269Z,14.80
2018-06-20T03:19:30.633Z,14.80
2018-06-20T03:21:59.749Z,14.80
2018-06-20T03:24:28.637Z,14.80
2018-06-20T03:26:57.537Z,14.80
2018-06-20T03:29:26.405Z,14.80
2018-06-20T03:31:55.265Z,14.80
2018-06-20T03:34:25.129Z,14.80
2018-06-20T03:36:55.217Z,14.80
2018-06-20T03:39:24.106Z,14.80
2018-06-20T03:41:53.021Z,14.80
2018-06-20T03:44:22.905Z,14.80
2018-06-20T03:46:52.755Z,14.80
2018-06-20T03:49:21.593Z,14.80
2018-06-20T03:51:51.361Z,14.80
2018-06-20T03:54:22.233Z,14.80
2018-06-20T03:56:51.029Z,14.80
2018-06-20T03:59:19.816Z,14.80
2018-06-20T04:01:49.629Z,14.80
2018-06-20T04:04:18.392Z,14.80
2018-06-20T04:06:47.193Z,14.80
2018-06-20T04:09:16.013Z,14.80
2018-06-20T04:11:44.871Z,14.80
2018-06-20T04:14:14.673Z,14.90
2018-06-20T04:16:43.473Z,14.90
2018-06-20T04:19:12.245Z,14.90
2018-06-20T04:21:41.041Z,14.90
2018-06-20T04:24:09.829Z,15.00
2018-06-20T04:26:38.621Z,15.00
2018-06-20T04:29:07.461Z,15.00
2018-06-20T04:31:36.304Z,15.00
2018-06-20T04:34:05.104Z,15.10
2018-06-20T04:36:34.901Z,15.10
2018-06-20T04:39:05.392Z,15.20
2018-06-20T04:41:34.205Z,15.20
2018-06-20T04:44:03.048Z,15.20
2018-06-20T04:46:31.877Z,15.30
2018-06-20T04:49:00.655Z,15.30
2018-06-20T04:51:29.448Z,15.40
2018-06-20T04:53:58.244Z,15.40
2018-06-20T04:56:27.032Z,15.50
2018-06-20T05:01:24.322Z,15.60
2018-06-20T05:03:53.098Z,15.60
2018-06-20T05:06:22.025Z,15.70
2018-06-20T05:08:50.845Z,15.70
2018-06-20T05:11:20.660Z,15.80
2018-06-20T05:13:49.452Z,15.90
2018-06-20T05:16:18.261Z,15.90
2018-06-20T05:18:48.060Z,16.00
2018-06-20T05:21:16.833Z,16.10
2018-06-20T05:23:45.625Z,16.10
2018-06-20T05:26:14.456Z,16.20
2018-06-20T05:28:43.321Z,16.30
2018-06-20T05:31:13.373Z,16.40
2018-06-20T05:33:42.217Z,16.50
2018-06-20T05:36:10.992Z,16.60
2018-06-20T05:38:39.796Z,16.70
2018-06-20T05:41:09.572Z,16.90
2018-06-20T05:46:07.764Z,17.20
2018-06-20T05:48:37.556Z,17.30
2018-06-20T05:51:06.368Z,17.40
2018-06-20T05:53:35.228Z,17.50
2018-06-20T05:56:04.049Z,17.70
2018-06-20T05:58:33.912Z,17.90
2018-06-20T06:01:02.660Z,18.00
2018-06-20T06:03:31.480Z,18.20
2018-06-20T06:06:10.864Z,18.40
2018-06-20T06:08:39.937Z,18.60
2018-06-20T06:11:08.936Z,18.80
2018-06-20T06:13:38.128Z,19.10
2018-06-20T06:16:06.883Z,19.30
2018-06-20T06:18:36.176Z,19.50
2018-06-20T06:21:06.569Z,19.70
2018-06-20T06:23:35.361Z,19.90
2018-06-20T06:26:04.134Z,20.10
2018-06-20T06:28:32.944Z,20.20
2018-06-20T06:31:01.698Z,20.40
2018-06-20T06:33:30.507Z,20.70
2018-06-20T06:35:59.271Z,20.90
2018-06-20T06:38:27.976Z,21.10
2018-06-20T06:40:56.769Z,21.30
2018-06-20T06:43:25.545Z,21.60
2018-06-20T06:45:54.272Z,21.80
2018-06-20T06:48:23.027Z,22.10
2018-06-20T06:50:51.781Z,22.20
2018-06-20T06:53:20.617Z,22.50
2018-06-20T06:55:49.373Z,22.80
2018-06-20T06:58:18.180Z,23.00
2018-06-20T07:00:46.957Z,23.20
2018-06-20T07:03:15.757Z,23.40
2018-06-20T07:05:44.556Z,23.70
2018-06-20T07:08:13.317Z,23.90
2018-06-20T07:10:42.105Z,24.20
2018-06-20T07:13:11.560Z,24.40
2018-06-20T07:15:40.316Z,24.60
2018-06-20T07:18:09.108Z,24.80
2018-06-20T07:20:37.876Z,25.00
2018-06-20T07:23:06.716Z,25.20
2018-06-20T07:25:35.432Z,25.40
2018-06-20T07:28:04.160Z,25.70
2018-06-20T07:30:32.936Z,25.90
2018-06-20T07:33:02.752Z,26.10
2018-06-20T07:35:31.566Z,26.30
2018-06-20T07:41:33.428Z,26.70
2018-06-20T07:44:02.204Z,26.90
2018-06-20T07:46:30.988Z,27.10
2018-06-20T07:48:59.776Z,27.30
2018-06-20T07:51:30.536Z,27.40
2018-06-20T07:54:00.305Z,27.70
2018-06-20T07:56:29.092Z,27.80
2018-06-20T07:58:58.480Z,28.00
2018-06-20T08:01:48.644Z,28.10
2018-06-20T08:04:22.860Z,28.40
2018-06-20T08:09:31.060Z,28.70
2018-06-20T08:13:03.121Z,28.90
2018-06-20T08:15:38.209Z,29.00
2018-06-20T08:18:12.332Z,29.20
2018-06-20T08:20:41.148Z,29.30
2018-06-20T08:23:10.756Z,29.60
2018-06-20T08:25:39.535Z,29.80
2018-06-20T08:28:08.335Z,30.00
2018-06-20T08:30:38.135Z,30.10
2018-06-20T08:33:06.932Z,30.20
2018-06-20T08:35:36.708Z,30.40
2018-06-20T08:38:05.522Z,30.60
2018-06-20T08:40:35.220Z,30.80
2018-06-20T08:43:04.008Z,31.00
2018-06-20T10:08:41.253Z,31.30
2018-06-20T10:11:15.655Z,34.90
2018-06-20T10:13:45.344Z,34.90
2018-06-20T10:16:14.185Z,34.90
2018-06-20T10:18:43.003Z,34.90
2018-06-20T10:21:12.006Z,34.90
2018-06-20T10:23:40.999Z,35.00
2018-06-20T10:26:09.827Z,35.00
2018-06-20T10:28:38.622Z,34.90
2018-06-20T10:31:07.391Z,34.90
2018-06-20T10:33:36.194Z,34.80
2018-06-20T10:36:04.995Z,34.80
2018-06-20T10:38:34.790Z,34.70
2018-06-20T10:41:03.630Z,34.70
2018-06-20T10:43:32.351Z,34.70
2018-06-20T10:46:06.725Z,34.70
2018-06-20T10:48:35.439Z,34.60
2018-06-20T10:51:04.252Z,34.70
2018-06-20T10:53:33.067Z,34.70
2018-06-20T10:56:05.459Z,34.80
2018-06-20T11:01:13.631Z,35.00
2018-06-20T11:03:47.679Z,35.20
2018-06-20T11:06:21.731Z,35.30
2018-06-20T11:08:56.035Z,35.50
2018-06-20T11:11:32.351Z,35.60
2018-06-20T11:14:02.220Z,35.80
2018-06-20T11:18:59.418Z,36.20
2018-06-20T11:21:28.191Z,36.30
2018-06-20T11:23:56.987Z,36.40
2018-06-20T11:26:26.807Z,36.50
2018-06-20T11:28:55.542Z,36.70
2018-06-20T11:31:24.295Z,36.80
2018-06-20T11:33:53.067Z,36.90
2018-06-20T11:36:21.855Z,37.00
2018-06-20T11:38:51.687Z,37.10
2018-06-20T11:41:20.471Z,37.20
2018-06-20T11:43:49.294Z,37.20
2018-06-20T11:46:23.543Z,37.30
2018-06-20T11:48:52.363Z,37.40
2018-06-20T11:51:21.147Z,37.40
2018-06-20T11:53:49.874Z,37.50
2018-06-20T11:56:20.671Z,37.50
2018-06-20T11:58:54.847Z,37.60
2018-06-20T12:01:29.135Z,37.60
2018-06-20T12:04:04.274Z,37.70
2018-06-20T12:06:38.510Z,37.80
2018-06-20T12:09:12.627Z,37.90
2018-06-20T12:11:46.782Z,38.00
2018-06-20T12:14:20.955Z,38.10
2018-06-20T12:16:49.057Z,38.10
2018-06-20T12:19:23.326Z,38.20
2018-06-20T12:21:57.526Z,38.20
2018-06-20T12:24:31.815Z,38.20
2018-06-20T12:27:06.991Z,38.20
2018-06-20T12:29:41.316Z,38.30
2018-06-20T12:32:15.551Z,38.30
2018-06-20T12:34:50.614Z,38.40
2018-06-20T12:37:24.927Z,38.50
2018-06-20T12:39:59.046Z,38.50
2018-06-20T12:43:31.899Z,38.50
2018-06-20T12:46:08.375Z,38.50
2018-06-20T12:48:37.115Z,38.30
2018-06-20T12:51:05.906Z,38.20
2018-06-20T12:53:34.686Z,38.10
2018-06-20T12:56:03.475Z,38.00
2018-06-20T13:01:01.783Z,37.90
2018-06-20T13:03:32.511Z,37.80
2018-06-20T13:06:01.288Z,37.90
2018-06-20T13:08:30.047Z,37.90
2018-06-20T13:10:58.851Z,38.00
2018-06-20T13:13:27.619Z,38.10
2018-06-20T13:15:56.418Z,38.20
2018-06-20T13:18:25.139Z,38.20
2018-06-20T13:20:53.892Z,38.10
2018-06-20T13:23:24.738Z,38.10
2018-06-20T13:25:53.508Z,38.20
2018-06-20T13:28:22.791Z,38.20
2018-06-20T13:31:01.762Z,38.10
2018-06-20T13:33:36.023Z,38.00
2018-06-20T13:36:10.127Z,38.00
2018-06-20T13:38:44.380Z,37.90
2018-06-20T13:41:18.647Z,37.80
2018-06-20T13:43:52.963Z,37.70
2018-06-20T13:46:27.323Z,37.70
2018-06-20T13:48:56.505Z,37.60
2018-06-20T13:51:26.346Z,37.40
2018-06-20T13:53:55.179Z,37.40
2018-06-20T13:56:24.939Z,37.30
2018-06-20T13:58:53.671Z,37.30
2018-06-20T14:01:22.535Z,37.30
2018-06-20T14:03:51.287Z,37.40
2018-06-20T14:06:20.091Z,37.50
2018-06-20T14:08:48.882Z,37.50
2018-06-20T14:11:17.696Z,37.60
2018-06-20T14:16:18.939Z,37.90
2018-06-20T14:18:47.719Z,38.10
2018-06-20T14:21:22.899Z,38.20
2018-06-20T14:26:22.454Z,38.60
2018-06-20T14:28:51.438Z,38.70
2018-06-20T14:31:26.632Z,38.80
2018-06-20T14:34:00.798Z,38.80
2018-06-20T14:36:34.775Z,38.80
2018-06-20T14:39:15.499Z,38.80
2018-06-20T14:41:51.895Z,38.90
2018-06-20T14:44:20.642Z,39.00
2018-06-20T14:46:50.467Z,39.20
2018-06-20T14:49:20.270Z,39.20
2018-06-20T14:51:50.127Z,39.30
2018-06-20T14:54:18.895Z,39.40
2018-06-20T14:56:51.555Z,39.50
2018-06-20T14:59:20.358Z,39.70
2018-06-20T15:01:49.135Z,39.80
2018-06-20T15:04:18.926Z,39.90
2018-06-20T15:09:16.174Z,40.10
2018-06-20T15:11:44.923Z,40.20
2018-06-20T15:14:20.691Z,40.40
2018-06-20T15:16:56.031Z,40.50
2018-06-20T15:19:24.778Z,40.60
2018-06-20T15:21:53.575Z,40.60
2018-06-20T15:26:57.135Z,40.70
2018-06-20T15:29:39.043Z,40.70
2018-06-20T15:32:13.163Z,40.80
2018-06-20T15:34:48.390Z,40.80
2018-06-20T15:37:22.722Z,40.80
2018-06-20T15:39:51.489Z,40.90
2018-06-20T15:42:20.356Z,40.90
2018-06-20T15:44:51.160Z,40.90
2018-06-20T15:47:21.531Z,41.00
2018-06-20T15:49:57.311Z,41.20
2018-06-20T15:52:26.122Z,41.20
2018-06-20T15:54:54.906Z,41.30
2018-06-20T15:57:23.646Z,41.30
2018-06-20T15:59:52.478Z,41.40
2018-06-20T16:02:21.278Z,41.40
2018-06-20T16:04:50.082Z,41.50
2018-06-20T16:07:18.953Z,41.60
2018-06-20T16:09:53.932Z,41.70
2018-06-20T16:12:22.746Z,41.70
2018-06-20T16:14:51.578Z,41.80
2018-06-20T16:17:20.546Z,41.90
2018-06-20T16:19:54.749Z,41.90
2018-06-20T16:25:04.031Z,42.00
2018-06-20T16:27:38.193Z,42.10
2018-06-20T16:30:13.210Z,42.10
2018-06-20T16:32:42.054Z,42.20
2018-06-20T16:35:10.808Z,42.20
2018-06-20T16:37:39.725Z,42.30
2018-06-20T16:40:09.344Z,42.30
2018-06-20T16:42:38.169Z,42.20
2018-06-20T16:45:08.039Z,42.30
2018-06-20T16:47:36.826Z,42.30
2018-06-20T16:50:05.565Z,42.30
2018-06-20T16:52:34.478Z,42.20
2018-06-20T16:55:03.288Z,42.20
2018-06-20T16:57:32.074Z,42.10
2018-06-20T17:00:00.885Z,42.10
2018-06-20T17:02:32.594Z,42.00
2018-06-20T17:05:01.666Z,41.90
2018-06-20T17:07:30.465Z,41.90
2018-06-20T17:10:00.218Z,41.80
2018-06-20T17:12:34.466Z,41.80
2018-06-20T17:15:08.630Z,41.70
2018-06-20T17:17:42.830Z,41.60
2018-06-20T17:20:17.133Z,41.50
2018-06-20T17:22:51.358Z,41.40
2018-06-20T17:25:22.526Z,41.30
2018-06-20T17:27:51.254Z,41.20
2018-06-20T17:30:20.014Z,40.90
2018-06-20T17:32:48.774Z,40.70
2018-06-20T17:35:17.586Z,40.60
2018-06-20T17:37:46.374Z,40.40
2018-06-20T17:40:16.314Z,40.10
2018-06-20T17:42:45.106Z,39.80
2018-06-20T17:45:13.891Z,39.50
2018-06-20T17:47:42.650Z,39.10
2018-06-20T17:52:40.843Z,38.50
2018-06-20T17:55:09.621Z,38.20
2018-06-20T17:57:38.414Z,37.90
2018-06-20T18:00:07.158Z,37.60
2018-06-20T18:02:35.990Z,37.40
2018-06-20T18:05:10.325Z,37.20
2018-06-20T18:07:44.545Z,36.90
2018-06-20T18:10:18.661Z,36.60
2018-06-20T18:12:54.284Z,36.40
2018-06-20T18:15:28.261Z,36.20
2018-06-20T18:17:57.081Z,35.90
2018-06-20T18:20:25.865Z,35.70
2018-06-20T18:22:54.625Z,35.50
2018-06-20T18:25:25.338Z,35.20
2018-06-20T18:27:54.103Z,35.00
2018-06-20T18:30:22.998Z,34.80
2018-06-20T18:35:20.228Z,34.40
2018-06-20T18:37:49.054Z,34.20
2018-06-20T18:40:17.825Z,34.00
2018-06-20T18:42:46.597Z,33.80
2018-06-20T18:45:15.329Z,33.60
2018-06-20T18:47:50.493Z,33.40
2018-06-20T18:50:19.205Z,33.20
2018-06-20T18:52:48.929Z,33.00
2018-06-20T18:55:17.734Z,32.80
2018-06-20T19:00:25.892Z,32.40
2018-06-20T19:03:00.146Z,32.20
2018-06-20T19:05:34.121Z,31.90
2018-06-20T19:08:08.389Z,31.70
2018-06-20T19:10:37.149Z,31.60
2018-06-20T19:13:06.969Z,31.40
2018-06-20T19:15:35.701Z,31.10
2018-06-20T19:18:04.519Z,31.00
2018-06-20T19:20:33.337Z,30.80
2018-06-20T19:23:02.124Z,30.60
2018-06-20T19:25:30.953Z,30.40
2018-06-20T19:27:59.713Z,30.20
2018-06-20T19:30:28.485Z,30.10
2018-06-20T19:32:57.281Z,29.90
2018-06-20T19:35:26.050Z,29.70
2018-06-20T19:37:55.873Z,29.50
2018-06-20T19:40:24.617Z,29.30
2018-06-20T19:42:53.437Z,29.20
2018-06-20T19:45:22.262Z,29.10
2018-06-20T19:47:51.021Z,28.90
2018-06-20T19:50:19.813Z,28.70
2018-06-20T19:52:48.601Z,28.50
2018-06-20T19:55:17.565Z,28.40
2018-06-20T19:57:46.378Z,28.20
2018-06-20T20:00:19.218Z,28.10
2018-06-20T20:02:48.046Z,27.90
2018-06-20T20:05:16.838Z,27.70
2018-06-20T20:07:45.622Z,27.50
2018-06-20T20:10:14.433Z,27.40
2018-06-20T20:12:43.313Z,27.20
2018-06-20T20:15:12.089Z,27.10
2018-06-20T20:17:40.895Z,27.00
2018-06-20T20:20:09.695Z,26.80
2018-06-20T20:22:38.482Z,26.80
2018-06-20T20:25:07.237Z,26.70
2018-06-20T20:27:36.038Z,26.50
2018-06-20T20:30:05.077Z,26.40
2018-06-20T20:32:33.916Z,26.30
2018-06-20T20:35:02.685Z,26.10
2018-06-20T20:37:31.493Z,26.00
2018-06-20T20:40:00.273Z,25.90
2018-06-20T20:42:29.053Z,25.70
2018-06-20T20:44:57.853Z,25.70
2018-06-20T20:47:26.634Z,25.50
2018-06-20T20:49:55.418Z,25.40
2018-06-20T20:52:24.222Z,25.30
2018-06-20T20:54:53.000Z,25.20
2018-06-20T20:57:21.821Z,25.10
2018-06-20T20:59:50.566Z,25.00
2018-06-20T21:02:19.409Z,24.90
2018-06-20T21:07:16.777Z,24.70
2018-06-20T21:09:45.546Z,24.60
2018-06-20T21:12:15.018Z,24.50
2018-06-20T21:14:43.818Z,24.40
2018-06-20T21:17:12.591Z,24.30
2018-06-20T21:19:41.385Z,24.20
2018-06-20T21:22:10.166Z,24.10
2018-06-20T21:24:39.075Z,24.00
2018-06-20T21:27:07.970Z,23.90
2018-06-20T21:29:36.811Z,23.80
2018-06-20T21:32:06.690Z,23.70
2018-06-20T21:34:35.601Z,23.60
2018-06-20T21:37:05.474Z,23.60
2018-06-20T21:39:34.429Z,23.50
2018-06-20T21:42:03.257Z,23.40
2018-06-20T21:44:32.477Z,23.30
2018-06-20T21:47:01.355Z,23.20
2018-06-20T21:49:30.309Z,23.10
2018-06-20T21:51:59.110Z,23.10
2018-06-20T21:54:28.083Z,23.00
2018-06-20T21:56:57.829Z,22.90
2018-06-20T21:59:26.613Z,22.80
2018-06-20T22:01:55.525Z,22.70
2018-06-20T22:04:25.353Z,22.70
2018-06-20T22:06:54.265Z,22.60
2018-06-20T22:09:23.188Z,22.50
2018-06-20T22:11:52.073Z,22.40
2018-06-20T22:14:20.898Z,22.30
2018-06-20T22:16:49.785Z,22.30
2018-06-20T22:19:19.581Z,22.20
2018-06-20T22:21:49.501Z,22.10
2018-06-20T22:24:18.385Z,22.00
2018-06-20T22:26:47.168Z,22.00
2018-06-20T22:29:16.057Z,21.90
2018-06-20T22:31:44.888Z,21.80
2018-06-20T22:34:13.797Z,21.80
2018-06-20T22:36:42.681Z,21.70
2018-06-20T22:39:11.572Z,21.60
2018-06-20T22:41:40.502Z,21.50
2018-06-20T22:44:09.325Z,21.50
2018-06-20T22:46:38.096Z,21.40
2018-06-20T22:49:07.393Z,21.30
2018-06-20T22:51:36.320Z,21.30
2018-06-20T22:54:05.201Z,21.20
2018-06-20T22:56:34.012Z,21.20
2018-06-20T22:59:02.828Z,21.10
2018-06-20T23:01:31.633Z,21.00
2018-06-20T23:04:00.393Z,21.00
2018-06-20T23:06:31.276Z,20.90
2018-06-20T23:09:00.496Z,20.80
2018-06-20T23:11:33.556Z,20.70
2018-06-20T23:14:02.341Z,20.70
2018-06-20T23:16:31.108Z,20.60
2018-06-20T23:18:59.892Z,20.60
2018-06-20T23:21:28.692Z,20.50
2018-06-20T23:23:57.468Z,20.40
2018-06-20T23:26:26.298Z,20.40
2018-06-20T23:31:23.556Z,20.20
2018-06-20T23:36:21.092Z,20.10
2018-06-20T23:38:49.916Z,20.10
2018-06-20T23:41:18.688Z,20.00
2018-06-20T23:43:47.468Z,20.00
2018-06-20T23:46:16.252Z,19.90
2018-06-20T23:48:45.052Z,19.90
2018-06-20T23:51:13.818Z,19.80
2018-06-20T23:53:44.580Z,19.70
2018-06-20T23:56:13.339Z,19.70
2018-06-20T23:58:42.176Z,19.60
